Time;durP1;ratioP1;P1;durP2;ratioP2;P2;SDS_P1;SDS_P2;PMS_P1;PMS_P2;Temp;Humidity;BMP_temperature;BMP_pressure;BME280_temperature;BME280_humidity;BME280_pressure;Samples;Min_cycle;Max_cycle;Signal;HPM_P1;HPM_P2
2021/08/31 00:01:05;;;;;;;10.05;6.90;;;17.00;93.60;;;;;;6184026;23;20024;-83
2021/08/31 00:03:31;;;;;;;11.98;7.47;;;16.90;93.70;;;;;;6183534;23;20024;-82
2021/08/31 00:05:56;;;;;;;11.25;7.32;;;16.90;93.70;;;;;;6184795;23;20028;-82
2021/08/31 00:08:23;;;;;;;11.02;7.65;;;16.90;93.60;;;;;;6183915;23;20014;-82
2021/08/31 00:10:48;;;;;;;9.63;7.05;;;16.90;93.60;;;;;;6184382;23;20017;-83
2021/08/31 00:13:14;;;;;;;10.73;7.47;;;16.90;93.60;;;;;;6187523;23;20055;-83
2021/08/31 00:15:39;;;;;;;11.23;7.18;;;16.80;93.50;;;;;;6183248;23;20091;-83
2021/08/31 00:18:05;;;;;;;9.30;7.13;;;16.80;93.60;;;;;;6184387;23;20024;-82
2021/08/31 00:20:30;;;;;;;10.43;6.95;;;16.80;93.60;;;;;;6184199;23;20028;-82
2021/08/31 00:22:57;;;;;;;9.93;7.00;;;16.70;93.70;;;;;;6183417;23;20025;-82
2021/08/31 00:25:23;;;;;;;10.18;7.10;;;16.70;93.70;;;;;;6184742;23;20092;-83
2021/08/31 00:27:48;;;;;;;10.45;6.88;;;16.70;93.70;;;;;;6183270;23;20050;-83
2021/08/31 00:30:14;;;;;;;10.75;7.22;;;16.70;93.70;;;;;;6185981;23;20064;-82
2021/08/31 00:32:40;;;;;;;9.65;6.93;;;16.60;93.50;;;;;;6184261;23;20088;-82
2021/08/31 00:35:06;;;;;;;10.27;6.80;;;16.60;93.30;;;;;;6183424;23;20021;-82
2021/08/31 00:37:31;;;;;;;9.35;7.00;;;16.60;93.30;;;;;;6183787;23;20017;-82
2021/08/31 00:39:57;;;;;;;9.85;7.15;;;16.60;93.30;;;;;;6184155;23;20100;-83
2021/08/31 00:42:22;;;;;;;11.13;7.15;;;16.50;93.30;;;;;;6183497;23;20092;-82
2021/08/31 00:44:48;;;;;;;10.88;7.25;;;16.50;93.50;;;;;;6183808;23;20021;-82
2021/08/31 00:47:14;;;;;;;10.15;6.80;;;16.50;93.60;;;;;;6183869;23;20013;-82
2021/08/31 00:49:39;;;;;;;12.75;7.15;;;16.50;93.60;;;;;;6182992;23;20021;-82
2021/08/31 00:52:05;;;;;;;10.80;7.75;;;16.50;93.50;;;;;;6184204;23;20449;-82
2021/08/31 00:54:31;;;;;;;10.98;6.70;;;16.40;93.70;;;;;;6183849;23;20095;-82
2021/08/31 00:57:01;;;;;;;10.18;7.15;;;16.40;93.70;;;;;;6183487;23;20020;-82
2021/08/31 00:59:27;;;;;;;11.25;7.00;;;16.40;93.70;;;;;;6184136;23;20020;-82
2021/08/31 01:01:53;;;;;;;9.88;6.95;;;16.40;93.40;;;;;;6183477;23;20458;-82
2021/08/31 01:04:21;;;;;;;10.23;7.00;;;16.40;93.70;;;;;;6182612;23;20025;-82
2021/08/31 01:06:52;;;;;;;9.65;6.63;;;16.30;93.70;;;;;;6182879;23;20429;-82
2021/08/31 01:09:18;;;;;;;10.65;7.30;;;16.30;93.80;;;;;;6183838;23;20025;-82
2021/08/31 01:11:46;;;;;;;12.13;7.30;;;16.30;93.90;;;;;;6184681;23;20021;-81
2021/08/31 01:14:12;;;;;;;11.63;7.18;;;16.30;93.80;;;;;;6183857;23;20017;-82
2021/08/31 01:16:38;;;;;;;12.10;6.88;;;16.30;93.90;;;;;;6183154;23;20017;-82
2021/08/31 01:19:04;;;;;;;10.18;7.10;;;16.30;93.90;;;;;;6183155;23;20025;-82
2021/08/31 01:21:30;;;;;;;12.65;6.82;;;16.20;93.80;;;;;;6183847;23;20017;-81
2021/08/31 01:23:55;;;;;;;9.55;6.35;;;16.20;93.90;;;;;;6183676;23;20027;-81
2021/08/31 01:26:21;;;;;;;8.82;6.30;;;16.20;93.50;;;;;;6183467;23;20080;-81
2021/08/31 01:28:47;;;;;;;11.38;6.70;;;16.20;93.70;;;;;;6183882;23;20056;-82
2021/08/31 01:31:13;;;;;;;10.98;6.32;;;16.10;93.70;;;;;;6183232;23;20017;-81
2021/08/31 01:33:39;;;;;;;11.27;6.60;;;16.10;93.70;;;;;;6183848;23;20024;-81
2021/08/31 01:36:25;;;;;;;11.75;6.70;;;16.10;93.60;;;;;;6183610;23;20025;-81
2021/08/31 01:38:57;;;;;;;12.05;7.22;;;16.10;93.40;;;;;;6182936;23;20798;-82
2021/08/31 01:41:24;;;;;;;9.43;6.30;;;16.10;93.70;;;;;;6183662;23;20048;-81
2021/08/31 01:43:50;;;;;;;15.65;6.78;;;16.00;93.70;;;;;;6183541;23;20315;-82
2021/08/31 01:46:16;;;;;;;11.15;6.80;;;16.00;93.30;;;;;;6183061;23;20092;-82
2021/08/31 01:48:41;;;;;;;9.57;6.28;;;16.00;93.50;;;;;;6183546;23;20044;-81
2021/08/31 01:51:07;;;;;;;9.23;6.10;;;16.00;93.50;;;;;;6185597;23;20021;-81
2021/08/31 01:53:36;;;;;;;12.00;6.47;;;16.00;93.50;;;;;;6182692;23;20019;-81
2021/08/31 01:56:03;;;;;;;9.95;6.15;;;16.00;93.80;;;;;;6185517;23;20080;-82
2021/08/31 01:58:29;;;;;;;11.98;6.45;;;15.90;93.20;;;;;;6184256;23;20013;-81
2021/08/31 02:00:54;;;;;;;11.02;6.20;;;15.90;93.30;;;;;;6182549;23;20056;-82
2021/08/31 02:03:20;;;;;;;9.60;5.47;;;15.90;93.20;;;;;;6208660;23;20019;-81
2021/08/31 02:05:46;;;;;;;10.52;5.82;;;15.90;93.00;;;;;;6188554;23;20150;-81
2021/08/31 02:08:11;;;;;;;8.95;5.55;;;15.90;93.00;;;;;;6214605;23;20013;-81
2021/08/31 02:10:37;;;;;;;9.85;5.68;;;15.90;93.00;;;;;;6188434;23;20017;-81
2021/08/31 02:13:03;;;;;;;10.68;5.80;;;15.90;93.00;;;;;;6188756;23;20392;-82
2021/08/31 02:15:29;;;;;;;11.93;5.85;;;15.90;93.20;;;;;;6214359;23;20056;-82
2021/08/31 02:17:54;;;;;;;9.70;5.72;;;15.80;93.50;;;;;;6190449;23;20024;-81
2021/08/31 02:20:20;;;;;;;10.70;5.72;;;15.80;93.40;;;;;;6189671;23;20021;-82
2021/08/31 02:22:46;;;;;;;12.70;5.60;;;15.80;93.60;;;;;;6165589;23;20453;-82
2021/08/31 02:25:11;;;;;;;11.68;5.60;;;15.80;93.50;;;;;;6190921;23;20027;-81
2021/08/31 02:27:38;;;;;;;13.85;5.85;;;15.80;93.30;;;;;;6189151;23;20012;-81
2021/08/31 02:30:06;;;;;;;13.30;5.93;;;15.80;93.40;;;;;;6190789;23;20017;-81
2021/08/31 02:32:31;;;;;;;10.38;5.60;;;15.80;93.40;;;;;;6190226;23;20023;-81
2021/08/31 02:34:57;;;;;;;14.10;5.88;;;15.80;93.20;;;;;;6189746;23;20013;-81
2021/08/31 02:37:23;;;;;;;14.18;5.72;;;15.80;93.20;;;;;;6190505;23;20068;-81
2021/08/31 02:39:48;;;;;;;10.80;5.40;;;15.80;93.40;;;;;;6190105;23;20031;-82
2021/08/31 02:42:14;;;;;;;14.02;5.75;;;15.80;93.20;;;;;;6189418;23;20009;-81
2021/08/31 02:44:40;;;;;;;15.18;5.97;;;15.80;93.20;;;;;;6189893;23;20100;-82
2021/08/31 02:47:06;;;;;;;18.83;6.07;;;15.80;93.40;;;;;;6190249;23;20013;-82
2021/08/31 02:49:31;;;;;;;14.43;5.60;;;15.80;93.70;;;;;;6189099;23;20019;-82
2021/08/31 02:51:58;;;;;;;12.88;5.32;;;15.80;93.40;;;;;;6190306;23;20100;-81
2021/08/31 02:54:23;;;;;;;10.38;5.05;;;15.80;93.50;;;;;;6190154;23;20533;-82
2021/08/31 02:56:49;;;;;;;19.92;6.18;;;15.80;93.70;;;;;;6189008;23;20016;-82
2021/08/31 02:59:14;;;;;;;13.18;5.65;;;15.80;93.80;;;;;;6190188;23;20049;-81
2021/08/31 03:04:24;;;;;;;11.15;4.78;;;15.80;93.60;;;;;;6189165;23;20020;-81
2021/08/31 03:06:50;;;;;;;11.75;5.07;;;15.80;93.40;;;;;;6190063;23;20019;-82
2021/08/31 03:09:15;;;;;;;11.93;5.15;;;15.80;93.20;;;;;;6190287;23;20016;-82
2021/08/31 03:11:41;;;;;;;10.38;4.80;;;15.70;93.40;;;;;;6188819;23;20099;-82
2021/08/31 03:14:07;;;;;;;12.88;4.97;;;15.70;93.50;;;;;;6217074;23;20016;-81
2021/08/31 03:16:33;;;;;;;11.57;5.05;;;15.70;93.40;;;;;;6215383;23;20071;-82
2021/08/31 03:18:58;;;;;;;11.50;4.97;;;15.70;93.30;;;;;;6190124;23;20447;-81
2021/08/31 03:21:24;;;;;;;11.55;5.15;;;15.80;93.50;;;;;;6189990;23;20024;-81
2021/08/31 03:23:49;;;;;;;8.68;4.60;;;15.70;93.50;;;;;;6188782;23;20074;-81
2021/08/31 03:26:15;;;;;;;12.88;5.05;;;15.70;93.60;;;;;;6190066;23;20027;-81
2021/08/31 03:28:40;;;;;;;11.85;5.03;;;15.70;93.40;;;;;;6188955;23;20036;-81
2021/08/31 03:31:06;;;;;;;9.45;4.45;;;15.70;93.20;;;;;;6189207;23;20127;-81
2021/08/31 03:33:31;;;;;;;8.27;4.25;;;15.70;93.00;;;;;;6189350;23;20044;-81
2021/08/31 03:35:57;;;;;;;9.75;5.18;;;15.70;93.00;;;;;;6216268;23;20020;-82
2021/08/31 03:38:23;;;;;;;9.27;4.65;;;15.70;93.10;;;;;;6188869;23;20013;-82
2021/08/31 03:40:48;;;;;;;10.27;4.50;;;15.70;93.00;;;;;;6216312;23;20035;-81
2021/08/31 03:43:14;;;;;;;10.45;4.53;;;15.70;92.90;;;;;;6189858;23;20034;-82
2021/08/31 03:45:39;;;;;;;11.13;4.57;;;15.70;93.10;;;;;;6188485;23;20017;-82
2021/08/31 03:48:05;;;;;;;11.63;5.00;;;15.70;93.30;;;;;;6189926;23;20017;-81
2021/08/31 03:50:31;;;;;;;9.07;4.35;;;15.70;93.10;;;;;;6189463;23;20449;-82
2021/08/31 03:52:56;;;;;;;8.93;4.75;;;15.70;93.00;;;;;;6188905;23;20028;-81
2021/08/31 03:55:22;;;;;;;8.75;4.50;;;15.70;93.00;;;;;;6189305;23;20021;-81
2021/08/31 03:57:47;;;;;;;8.95;4.57;;;15.60;92.90;;;;;;6189426;23;20043;-81
2021/08/31 04:00:13;;;;;;;16.83;7.07;;;15.70;93.20;;;;;;6188933;23;20071;-81
2021/08/31 04:02:39;;;;;;;13.73;6.32;;;15.70;93.50;;;;;;6189242;23;20166;-81
2021/08/31 04:05:06;;;;;;;10.80;4.60;;;15.70;93.50;;;;;;6189248;23;20051;-81
2021/08/31 04:07:31;;;;;;;11.07;5.30;;;15.70;93.60;;;;;;6188510;23;20188;-81
2021/08/31 04:09:57;;;;;;;11.60;4.72;;;15.70;93.50;;;;;;6216330;23;20470;-81
2021/08/31 04:12:23;;;;;;;8.93;4.78;;;15.70;93.60;;;;;;6216323;23;20048;-81
2021/08/31 04:14:49;;;;;;;9.95;4.80;;;15.70;93.50;;;;;;6188239;23;20044;-81
2021/08/31 04:17:14;;;;;;;10.25;4.45;;;15.70;93.30;;;;;;6189768;23;20040;-81
2021/08/31 04:19:41;;;;;;;12.55;5.55;;;15.70;93.30;;;;;;6215927;23;20008;-81
2021/08/31 04:22:06;;;;;;;14.30;5.55;;;15.60;93.30;;;;;;6215696;23;20016;-81
2021/08/31 04:24:32;;;;;;;11.13;4.72;;;15.70;93.40;;;;;;6189086;23;20048;-81
2021/08/31 04:26:58;;;;;;;10.05;4.53;;;15.70;93.20;;;;;;6188694;23;20091;-82
2021/08/31 04:29:23;;;;;;;8.38;4.43;;;15.60;93.10;;;;;;6189056;23;20021;-81
2021/08/31 04:31:49;;;;;;;9.05;4.50;;;15.60;93.20;;;;;;6189181;23;20071;-81
2021/08/31 04:34:15;;;;;;;17.30;6.60;;;15.60;93.40;;;;;;6188136;23;20082;-81
2021/08/31 04:36:40;;;;;;;9.52;4.45;;;15.60;93.60;;;;;;6215597;23;20337;-81
2021/08/31 04:39:06;;;;;;;9.98;5.10;;;15.60;93.50;;;;;;6189090;23;20032;-81
2021/08/31 04:41:32;;;;;;;8.52;4.57;;;15.60;93.30;;;;;;6214133;23;20059;-81
2021/08/31 04:43:57;;;;;;;10.80;4.53;;;15.60;93.20;;;;;;6189159;23;20024;-81
2021/08/31 04:46:23;;;;;;;9.15;4.63;;;15.60;93.20;;;;;;6189398;23;20048;-81
2021/08/31 04:48:48;;;;;;;9.27;4.78;;;15.60;93.00;;;;;;6187400;23;20017;-81
2021/08/31 04:51:14;;;;;;;7.95;4.30;;;15.60;93.00;;;;;;6189217;23;20020;-81
2021/08/31 04:53:39;;;;;;;10.05;4.50;;;15.60;93.10;;;;;;6188584;23;20329;-81
2021/08/31 04:56:05;;;;;;;17.73;7.05;;;15.60;93.10;;;;;;6215081;23;20067;-81
2021/08/31 04:58:30;;;;;;;11.85;5.63;;;15.60;93.40;;;;;;6188174;23;20025;-81
2021/08/31 05:00:56;;;;;;;16.13;7.55;;;15.60;93.50;;;;;;6188945;23;20020;-81
2021/08/31 05:03:22;;;;;;;16.45;7.30;;;15.70;93.80;;;;;;6188595;23;20008;-81
2021/08/31 05:05:47;;;;;;;17.48;6.78;;;15.70;93.80;;;;;;6189083;23;20016;-81
2021/08/31 05:08:13;;;;;;;17.55;7.45;;;15.70;93.80;;;;;;6189150;23;20067;-81
2021/08/31 05:10:39;;;;;;;15.80;6.88;;;15.70;94.10;;;;;;6187959;23;20054;-82
2021/08/31 05:13:04;;;;;;;14.90;6.47;;;15.70;94.00;;;;;;6189231;23;20103;-82
2021/08/31 05:15:31;;;;;;;14.82;6.65;;;15.70;94.00;;;;;;6216145;23;20023;-81
2021/08/31 05:17:58;;;;;;;11.90;6.20;;;15.70;93.90;;;;;;6188097;23;20031;-81
2021/08/31 05:20:25;;;;;;;19.60;9.13;;;15.70;94.00;;;;;;6181563;23;20348;-81
2021/08/31 05:22:51;;;;;;;18.48;7.43;;;15.70;94.40;;;;;;6190602;23;20027;-96
2021/08/31 05:25:18;;;;;;;15.60;6.93;;;15.70;94.30;;;;;;6194738;23;20020;-95
2021/08/31 05:27:43;;;;;;;15.43;6.95;;;15.70;94.30;;;;;;6192985;23;20023;-95
2021/08/31 05:30:09;;;;;;;18.50;8.57;;;15.80;94.30;;;;;;6193559;23;20020;-92
2021/08/31 05:32:35;;;;;;;16.98;8.18;;;15.80;94.60;;;;;;6188245;23;20016;-81
2021/08/31 05:35:00;;;;;;;20.45;9.60;;;15.80;94.60;;;;;;6188913;23;20322;-81
2021/08/31 05:37:26;;;;;;;13.93;7.13;;;15.80;94.80;;;;;;6187900;23;20020;-80
2021/08/31 05:39:52;;;;;;;9.60;5.53;;;15.80;94.70;;;;;;6188740;23;20074;-80
2021/08/31 05:42:17;;;;;;;17.27;7.63;;;15.80;94.40;;;;;;6187564;23;20048;-80
2021/08/31 05:44:43;;;;;;;18.15;8.05;;;15.80;94.50;;;;;;6214273;23;20017;-80
2021/08/31 05:47:08;;;;;;;18.35;7.88;;;15.90;94.70;;;;;;6214992;23;20012;-80
2021/08/31 05:49:35;;;;;;;14.75;6.93;;;15.90;94.70;;;;;;6187972;23;20402;-80
2021/08/31 05:52:01;;;;;;;12.35;5.65;;;15.90;94.40;;;;;;6188770;23;20087;-80
2021/08/31 05:54:27;;;;;;;23.92;9.50;;;15.90;94.00;;;;;;6190629;23;20070;-79
2021/08/31 05:56:55;;;;;;;19.63;8.35;;;15.90;94.60;;;;;;6190538;23;20028;-80
2021/08/31 05:59:21;;;;;;;18.88;8.50;;;15.90;94.80;;;;;;6214058;23;20063;-80
2021/08/31 06:01:46;;;;;;;21.30;9.27;;;15.90;95.10;;;;;;6190299;23;20467;-80
2021/08/31 06:04:12;;;;;;;10.90;5.82;;;15.90;95.40;;;;;;6190613;23;20016;-80
2021/08/31 06:06:38;;;;;;;21.17;8.63;;;16.00;95.00;;;;;;6189290;23;20047;-80
2021/08/31 06:09:07;;;;;;;15.32;7.97;;;16.00;95.30;;;;;;6190363;23;20353;-80
2021/08/31 06:11:39;;;;;;;22.30;8.80;;;16.00;95.30;;;;;;6217192;23;20009;-80
2021/08/31 06:14:06;;;;;;;16.52;7.60;;;16.00;95.60;;;;;;6190388;23;20012;-80
2021/08/31 06:16:31;;;;;;;16.15;7.88;;;16.10;95.20;;;;;;6190393;23;20012;-80
2021/08/31 06:18:57;;;;;;;20.75;8.93;;;16.10;95.50;;;;;;6216530;23;20416;-80
2021/08/31 06:21:22;;;;;;;13.70;7.15;;;16.10;95.30;;;;;;6189585;23;20015;-80
2021/08/31 06:23:48;;;;;;;19.73;8.75;;;16.10;95.10;;;;;;6190164;23;20208;-81
2021/08/31 06:26:14;;;;;;;16.02;7.78;;;16.10;95.30;;;;;;6190728;23;20043;-80
2021/08/31 06:28:39;;;;;;;17.23;7.50;;;16.20;95.20;;;;;;6188712;23;20021;-80
2021/08/31 06:31:05;;;;;;;17.65;8.60;;;16.20;95.30;;;;;;6190778;23;20392;-80
2021/08/31 06:33:30;;;;;;;17.85;8.02;;;16.30;95.50;;;;;;6189253;23;20005;-80
2021/08/31 06:35:56;;;;;;;20.55;8.00;;;16.40;95.70;;;;;;6190138;23;20025;-80
2021/08/31 06:38:21;;;;;;;19.85;8.75;;;16.40;95.60;;;;;;6217416;23;20024;-80
2021/08/31 06:40:47;;;;;;;19.33;7.43;;;16.40;95.70;;;;;;6188932;23;20127;-80
2021/08/31 06:43:12;;;;;;;19.98;7.78;;;16.50;95.70;;;;;;6217416;23;20448;-80
2021/08/31 06:45:38;;;;;;;19.13;7.32;;;16.50;95.60;;;;;;6216890;23;20012;-80
2021/08/31 06:48:04;;;;;;;15.82;6.70;;;16.60;95.40;;;;;;6189757;23;20044;-80
2021/08/31 06:50:30;;;;;;;18.10;7.05;;;16.60;95.10;;;;;;6217085;23;20425;-80
2021/08/31 06:52:56;;;;;;;15.10;6.68;;;16.70;95.20;;;;;;6189863;23;20028;-80
2021/08/31 06:55:21;;;;;;;19.73;7.50;;;16.70;95.20;;;;;;6215998;23;20348;-80
2021/08/31 06:57:47;;;;;;;17.88;6.47;;;16.70;95.10;;;;;;6189760;23;20100;-80
2021/08/31 07:00:13;;;;;;;20.02;7.20;;;16.80;94.90;;;;;;6190028;23;20020;-80
2021/08/31 07:02:38;;;;;;;11.43;5.72;;;16.80;94.90;;;;;;6188703;23;20016;-82
2021/08/31 07:05:08;;;;;;;18.08;7.13;;;16.80;94.60;;;;;;6190224;23;20025;-80
2021/08/31 07:07:34;;;;;;;21.27;7.72;;;16.80;94.70;;;;;;6216070;23;20017;-78
2021/08/31 07:09:59;;;;;;;22.35;6.88;;;16.90;94.90;;;;;;6189253;23;20074;-80
2021/08/31 07:12:25;;;;;;;15.38;7.18;;;16.90;94.90;;;;;;6189009;23;20112;-81
2021/08/31 07:14:52;;;;;;;17.25;7.45;;;16.90;94.80;;;;;;6189358;23;20093;-80
2021/08/31 07:17:18;;;;;;;18.38;7.55;;;16.90;94.90;;;;;;6189235;23;20040;-82
2021/08/31 07:19:44;;;;;;;19.38;7.45;;;17.00;94.90;;;;;;6189474;23;20024;-82
2021/08/31 07:22:09;;;;;;;17.50;7.60;;;17.00;94.80;;;;;;6189688;23;20434;-82
2021/08/31 07:24:35;;;;;;;20.83;7.68;;;17.10;94.80;;;;;;6188214;23;20056;-82
2021/08/31 07:27:01;;;;;;;18.20;7.00;;;17.10;94.80;;;;;;6216701;23;20067;-82
2021/08/31 07:29:27;;;;;;;19.35;6.93;;;17.10;94.70;;;;;;6189321;23;20031;-80
2021/08/31 07:31:53;;;;;;;16.85;6.70;;;17.10;95.00;;;;;;6188107;23;20501;-80
2021/08/31 07:34:18;;;;;;;17.42;7.07;;;17.20;94.50;;;;;;6189685;23;20548;-80
2021/08/31 07:36:47;;;;;;;22.45;7.13;;;17.30;94.30;;;;;;6188462;23;20108;-80
2021/08/31 07:39:13;;;;;;;17.23;7.03;;;17.30;94.40;;;;;;6216141;23;20429;-82
2021/08/31 07:41:39;;;;;;;16.48;7.13;;;17.30;94.30;;;;;;6189214;23;20024;-82
2021/08/31 07:44:05;;;;;;;33.53;8.75;;;17.40;94.20;;;;;;6188437;23;20017;-82
2021/08/31 07:46:31;;;;;;;16.45;7.20;;;17.40;94.20;;;;;;6189706;23;20017;-83
2021/08/31 07:48:58;;;;;;;19.58;7.65;;;17.40;94.10;;;;;;6189905;23;20043;-83
2021/08/31 07:51:23;;;;;;;15.80;6.72;;;17.40;94.30;;;;;;6215501;23;20056;-82
2021/08/31 07:53:49;;;;;;;15.63;6.55;;;17.40;93.90;;;;;;6189265;23;20401;-83
2021/08/31 07:56:15;;;;;;;14.68;6.78;;;17.50;93.90;;;;;;6189332;23;20392;-82
2021/08/31 07:58:40;;;;;;;17.83;6.65;;;17.50;93.80;;;;;;6188875;23;20017;-82
2021/08/31 08:01:06;;;;;;;15.32;6.70;;;17.50;93.80;;;;;;6189694;23;20345;-81
2021/08/31 08:03:32;;;;;;;17.05;6.57;;;17.50;93.80;;;;;;6215577;23;20017;-81
2021/08/31 08:05:58;;;;;;;15.23;6.30;;;17.50;93.70;;;;;;6188646;23;20020;-82
2021/08/31 08:08:23;;;;;;;16.25;6.22;;;17.50;93.70;;;;;;6215653;23;20319;-82
2021/08/31 08:10:51;;;;;;;15.82;6.22;;;17.60;93.60;;;;;;6188808;23;20047;-83
2021/08/31 08:13:17;;;;;;;14.80;5.88;;;17.60;93.60;;;;;;6186876;23;20096;-83
2021/08/31 08:15:43;;;;;;;13.55;5.97;;;17.60;93.50;;;;;;6186190;23;20465;-83
2021/08/31 08:18:08;;;;;;;17.75;5.50;;;17.70;93.40;;;;;;6188597;23;20050;-83
2021/08/31 08:20:34;;;;;;;12.65;6.10;;;17.70;93.30;;;;;;6185611;23;20440;-84
2021/08/31 08:23:00;;;;;;;15.30;5.55;;;17.70;93.30;;;;;;6187156;23;20019;-83
2021/08/31 08:25:26;;;;;;;10.10;5.40;;;17.70;93.20;;;;;;6187708;23;20075;-83
2021/08/31 08:27:51;;;;;;;12.88;5.72;;;17.80;93.30;;;;;;6187014;23;20024;-82
2021/08/31 08:30:17;;;;;;;16.50;5.00;;;17.80;93.20;;;;;;6187126;23;20024;-83
2021/08/31 08:32:43;;;;;;;17.08;5.68;;;17.90;93.10;;;;;;6213665;23;20021;-83
2021/08/31 08:35:11;;;;;;;15.45;5.13;;;18.00;93.10;;;;;;6186075;23;20017;-83
2021/08/31 08:37:37;;;;;;;11.48;5.15;;;18.00;93.00;;;;;;6186240;23;20032;-81
2021/08/31 08:40:03;;;;;;;15.75;5.47;;;18.10;93.00;;;;;;6185636;23;20317;-81
2021/08/31 08:42:30;;;;;;;15.55;4.88;;;18.20;93.00;;;;;;6186493;23;20382;-81
2021/08/31 08:44:55;;;;;;;15.30;4.68;;;18.30;92.50;;;;;;6213347;23;20024;-80
2021/08/31 08:47:21;;;;;;;14.52;4.70;;;18.30;92.30;;;;;;6186176;23;20171;-79
2021/08/31 08:49:49;;;;;;;13.30;4.97;;;18.40;92.00;;;;;;6213084;23;20079;-80
2021/08/31 08:52:14;;;;;;;12.32;4.45;;;18.50;92.00;;;;;;6186304;23;20009;-80
2021/08/31 08:54:41;;;;;;;16.33;4.57;;;18.60;92.10;;;;;;6185595;23;20471;-80
2021/08/31 08:57:07;;;;;;;14.32;4.70;;;18.60;91.70;;;;;;6188816;23;20020;-80
2021/08/31 08:59:32;;;;;;;14.55;4.57;;;18.70;91.60;;;;;;6215423;23;20051;-80
2021/08/31 09:01:58;;;;;;;14.07;4.57;;;18.70;91.40;;;;;;6213904;23;20052;-80
2021/08/31 09:04:47;;;;;;;12.98;4.50;;;18.80;91.40;;;;;;6188645;23;20325;-79
2021/08/31 09:07:24;;;;;;;11.05;4.07;;;18.90;91.30;;;;;;6188997;23;20008;-80
2021/08/31 09:10:09;;;;;;;15.57;4.47;;;19.00;91.00;;;;;;6214160;23;20143;-79
2021/08/31 09:12:35;;;;;;;13.38;4.60;;;19.00;90.50;;;;;;6188619;23;20016;-79
2021/08/31 09:15:23;;;;;;;14.15;4.50;;;19.10;90.50;;;;;;6188785;23;20032;-80
2021/08/31 09:18:04;;;;;;;15.27;5.07;;;19.20;89.20;;;;;;6188866;23;20016;-81
2021/08/31 09:20:36;;;;;;;15.07;5.00;;;19.20;90.10;;;;;;6188866;23;20028;-81
2021/08/31 09:23:05;;;;;;;14.82;4.47;;;19.20;90.20;;;;;;6214923;23;20099;-81
2021/08/31 09:25:36;;;;;;;12.60;4.10;;;19.20;89.80;;;;;;6188394;23;20016;-81
2021/08/31 09:28:03;;;;;;;16.42;4.70;;;19.20;89.30;;;;;;6217931;23;20037;-80
2021/08/31 09:30:30;;;;;;;11.68;4.35;;;19.20;89.80;;;;;;6189909;23;20027;-80
2021/08/31 09:33:12;;;;;;;15.25;4.25;;;19.20;90.20;;;;;;6190449;23;20008;-80
2021/08/31 09:35:47;;;;;;;15.63;4.63;;;19.30;89.70;;;;;;6217722;23;20024;-80
2021/08/31 09:38:16;;;;;;;20.92;5.00;;;19.30;89.80;;;;;;6216803;23;20067;-80
2021/08/31 09:40:42;;;;;;;13.77;4.38;;;19.40;89.50;;;;;;6190536;23;20023;-81
2021/08/31 09:43:15;;;;;;;13.45;4.65;;;19.40;89.10;;;;;;6190814;23;20441;-80
2021/08/31 09:45:42;;;;;;;11.02;4.38;;;19.50;90.00;;;;;;6216125;23;20021;-82
2021/08/31 09:48:12;;;;;;;14.93;4.35;;;19.50;90.00;;;;;;6190213;23;20091;-81
2021/08/31 09:50:43;;;;;;;14.52;4.85;;;19.60;88.90;;;;;;6188768;23;20012;-81
2021/08/31 09:53:18;;;;;;;15.50;5.07;;;19.70;88.10;;;;;;6216930;23;20027;-82
2021/08/31 09:55:51;;;;;;;14.38;4.38;;;19.70;88.30;;;;;;6190242;23;20024;-82
2021/08/31 09:58:24;;;;;;;16.85;5.18;;;19.80;87.40;;;;;;6189893;23;20092;-83
2021/08/31 10:00:52;;;;;;;15.77;4.38;;;19.80;88.00;;;;;;6190377;23;20017;-84
2021/08/31 10:03:19;;;;;;;15.27;4.60;;;19.80;88.10;;;;;;6185458;23;20335;-82
2021/08/31 10:05:47;;;;;;;16.45;4.90;;;19.90;88.50;;;;;;6185818;23;20013;-83
2021/08/31 10:08:14;;;;;;;14.90;4.53;;;19.90;87.70;;;;;;6185297;23;20024;-83
2021/08/31 10:10:41;;;;;;;13.55;4.40;;;19.90;88.00;;;;;;6185113;23;20018;-84
2021/08/31 10:13:13;;;;;;;15.38;4.43;;;20.00;87.70;;;;;;6186065;23;20025;-83
2021/08/31 10:15:44;;;;;;;12.27;4.25;;;20.00;87.40;;;;;;6185041;23;20021;-84
2021/08/31 10:18:10;;;;;;;14.20;4.32;;;20.00;87.00;;;;;;6185431;23;20060;-83
2021/08/31 10:20:44;;;;;;;15.38;4.35;;;20.10;88.00;;;;;;6184209;23;20021;-84
2021/08/31 10:23:12;;;;;;;12.35;4.28;;;20.20;87.70;;;;;;6185287;23;20013;-83
2021/08/31 10:25:37;;;;;;;15.63;4.40;;;20.30;86.60;;;;;;6184066;23;20449;-82
2021/08/31 10:28:24;;;;;;;15.10;4.55;;;20.30;84.40;;;;;;6185693;23;20024;-84
2021/08/31 10:30:50;;;;;;;14.20;4.40;;;20.30;84.70;;;;;;6184781;23;20009;-83
2021/08/31 10:33:45;;;;;;;14.40;4.28;;;20.30;85.80;;;;;;6184418;23;20468;-85
2021/08/31 10:36:12;;;;;;;15.35;4.45;;;20.40;85.20;;;;;;6166288;23;20024;-83
2021/08/31 10:38:41;;;;;;;14.23;4.40;;;20.50;87.20;;;;;;6185829;23;20071;-82
2021/08/31 10:41:31;;;;;;;16.73;4.43;;;20.60;86.70;;;;;;6186284;23;20441;-83
2021/08/31 10:43:57;;;;;;;13.15;4.05;;;20.60;84.90;;;;;;6184718;23;20025;-83
2021/08/31 10:46:23;;;;;;;13.43;4.03;;;20.60;84.50;;;;;;6187264;23;20349;-81
2021/08/31 10:49:00;;;;;;;17.55;4.78;;;20.60;83.00;;;;;;6182956;23;20092;-81
2021/08/31 10:51:26;;;;;;;18.30;4.30;;;20.60;82.80;;;;;;6184498;23;20025;-81
2021/08/31 10:53:51;;;;;;;15.18;4.03;;;20.60;83.50;;;;;;6182870;23;20018;-81
2021/08/31 10:56:20;;;;;;;14.77;4.15;;;20.60;84.70;;;;;;6184664;23;20400;-82
2021/08/31 10:58:47;;;;;;;16.67;4.07;;;20.70;83.50;;;;;;6186445;23;20021;-81
2021/08/31 11:01:14;;;;;;;17.67;4.15;;;20.70;83.00;;;;;;6184453;23;20027;-81
2021/08/31 11:03:41;;;;;;;17.27;4.22;;;20.70;83.10;;;;;;6185262;23;20446;-80
2021/08/31 11:06:18;;;;;;;17.63;4.32;;;20.70;82.90;;;;;;6187073;23;20233;-81
2021/08/31 11:09:03;;;;;;;13.93;4.25;;;20.70;82.90;;;;;;6183574;23;20021;-81
2021/08/31 11:11:29;;;;;;;17.08;4.22;;;20.70;83.40;;;;;;6187303;23;20021;-81
2021/08/31 11:13:56;;;;;;;18.30;4.50;;;20.80;83.20;;;;;;6184595;23;20024;-80
2021/08/31 11:16:30;;;;;;;19.55;4.15;;;20.80;83.10;;;;;;6185055;23;20025;-81
2021/08/31 11:18:56;;;;;;;16.70;4.80;;;20.80;83.10;;;;;;6184528;23;20056;-80
2021/08/31 11:21:21;;;;;;;19.67;4.88;;;20.80;82.70;;;;;;6186092;23;20068;-81
2021/08/31 11:23:47;;;;;;;14.00;4.28;;;20.90;84.10;;;;;;6183301;23;20120;-80
2021/08/31 11:26:24;;;;;;;17.35;4.10;;;20.90;85.00;;;;;;6184720;23;20327;-81
2021/08/31 11:28:51;;;;;;;16.58;4.20;;;20.90;85.20;;;;;;6185468;23;20013;-81
2021/08/31 11:31:24;;;;;;;13.95;3.72;;;21.00;83.10;;;;;;6184497;23;20017;-81
2021/08/31 11:33:52;;;;;;;17.50;4.22;;;20.90;83.30;;;;;;6184317;23;20021;-81
2021/08/31 11:36:21;;;;;;;14.90;4.35;;;20.90;82.30;;;;;;6183277;23;20445;-81
2021/08/31 11:38:54;;;;;;;12.80;4.65;;;20.90;82.90;;;;;;6186097;23;20017;-81
2021/08/31 11:41:34;;;;;;;13.52;4.13;;;21.00;84.70;;;;;;6186545;23;20059;-81
2021/08/31 11:44:09;;;;;;;15.02;4.22;;;21.00;84.90;;;;;;6184254;23;20333;-81
2021/08/31 11:46:37;;;;;;;12.25;4.18;;;21.10;83.20;;;;;;6185766;23;20469;-81
2021/08/31 11:49:10;;;;;;;17.45;4.25;;;21.00;83.30;;;;;;6184082;23;20099;-81
2021/08/31 11:51:36;;;;;;;15.98;4.10;;;20.90;83.90;;;;;;6183084;23;20032;-81
2021/08/31 11:54:07;;;;;;;14.43;4.18;;;20.90;84.00;;;;;;6185659;23;20095;-81
2021/08/31 11:56:34;;;;;;;19.73;4.28;;;20.90;83.40;;;;;;6184130;23;20017;-81
2021/08/31 11:59:00;;;;;;;14.85;4.15;;;20.90;83.00;;;;;;6183297;23;20013;-81
2021/08/31 12:01:31;;;;;;;13.82;3.70;;;20.80;82.60;;;;;;6184628;23;20076;-81
2021/08/31 12:04:20;;;;;;;15.43;3.78;;;20.80;83.60;;;;;;6184360;23;20025;-81
2021/08/31 12:06:49;;;;;;;13.70;4.15;;;20.70;82.70;;;;;;6184062;23;20076;-81
2021/08/31 12:09:23;;;;;;;19.25;3.80;;;20.70;84.10;;;;;;6184444;23;20345;-81
2021/08/31 12:11:49;;;;;;;17.25;3.47;;;20.70;82.60;;;;;;6182694;23;20048;-81
2021/08/31 12:14:17;;;;;;;17.80;4.50;;;20.70;84.00;;;;;;6184100;23;20472;-82
2021/08/31 12:16:44;;;;;;;14.07;3.63;;;20.70;83.40;;;;;;6185686;23;20025;-81
2021/08/31 12:19:21;;;;;;;19.02;3.80;;;20.70;83.50;;;;;;6183248;23;20013;-81
2021/08/31 12:22:09;;;;;;;14.30;3.22;;;20.70;83.40;;;;;;6184032;23;20079;-80
2021/08/31 12:24:36;;;;;;;16.38;3.85;;;20.70;83.60;;;;;;6184496;23;20441;-81
2021/08/31 12:27:06;;;;;;;15.95;4.00;;;20.70;84.10;;;;;;6185286;23;20021;-80
2021/08/31 12:29:48;;;;;;;14.18;3.47;;;20.80;84.80;;;;;;6184032;23;20021;-80
2021/08/31 12:32:14;;;;;;;16.05;4.05;;;20.80;85.00;;;;;;6183040;23;20027;-80
2021/08/31 12:34:40;;;;;;;15.15;3.67;;;20.80;84.00;;;;;;6183715;23;20024;-81
2021/08/31 12:37:31;;;;;;;15.25;3.80;;;20.80;84.20;;;;;;6186128;23;20017;-81
2021/08/31 12:40:15;;;;;;;13.40;3.45;;;20.80;84.00;;;;;;6182955;23;20032;-80
2021/08/31 12:42:46;;;;;;;15.90;3.50;;;20.80;84.90;;;;;;6184803;23;20024;-82